KELP/ELP METAR and TAF weather

Enter ICAO airport designator
Station Type Date Time Source
KELP METAR 2019/04/25 21:51 UTC NOAA

KELP 252151Z 00000KT 10SM FEW120 30/M03 A3000 RMK AO2 SLP093 T03001033


Station Type Date Time Source
KELP Decoded METAR 2019/04/25 21:51 UTC NOAA

EL PASO INTERNATIONAL AIRPORT , TX, United States (KELP) 31-49N 106-23W 1197M
Apr 25, 2019 - 05:51 PM EDT / 2019.04.25 2151 UTC
Wind: Calm:0
Visibility: 10 mile(s):0
Sky conditions: mostly clear
Temperature: 86.0 F (30.0 C)
Dew Point: 26.1 F (-3.3 C)
Relative Humidity: 11%
Pressure (altimeter): 30 in. Hg (1015 hPa)
ob: KELP 252151Z 00000KT 10SM FEW120 30/M03 A3000 RMK AO2 SLP093 T03001033
cycle: 22

Station Type Date Time Source
KELP TAF 2019/04/25 18:22 UTC NOAA

TAF KELP 251720Z 2518/2618 30006KT P6SM FEW090
FM260100 11006KT P6SM SKC
FM261000 07005KT P6SM FEW250

Example: see airport list